createdAt,value
2019-04-01T00:08:56.239Z,0.00
2019-04-01T00:09:56.155Z,0.00
2019-04-01T00:10:56.853Z,0.00
2019-04-01T00:11:56.100Z,0.00
2019-04-01T00:12:56.062Z,0.00
2019-04-01T00:13:56.048Z,0.00
2019-04-01T00:14:56.055Z,0.00
2019-04-01T00:15:56.596Z,0.00
2019-04-01T00:16:56.097Z,0.00
2019-04-01T00:17:55.917Z,0.00
2019-04-01T00:19:02.855Z,0.00
2019-04-01T00:19:55.845Z,0.00
2019-04-01T00:20:55.950Z,0.00
2019-04-01T00:21:55.802Z,0.00
2019-04-01T00:22:55.891Z,0.00
2019-04-01T00:23:55.723Z,0.00
2019-04-01T00:24:55.913Z,0.00
2019-04-01T00:25:55.639Z,0.00
2019-04-01T00:26:55.619Z,0.00
2019-04-01T00:28:48.031Z,0.00
2019-04-01T00:28:55.565Z,0.00
2019-04-01T00:29:55.516Z,0.00
2019-04-01T00:30:55.495Z,0.00
2019-04-01T00:31:55.584Z,0.00
2019-04-01T00:32:55.426Z,0.00
2019-04-01T00:33:55.633Z,0.00
2019-04-01T00:34:55.374Z,0.00
2019-04-01T00:35:55.355Z,0.00
2019-04-01T00:36:55.309Z,0.00
2019-04-01T00:37:55.501Z,0.00
2019-04-01T00:38:55.228Z,0.00
2019-04-01T00:39:55.242Z,0.00
2019-04-01T00:40:55.141Z,0.00
2019-04-01T00:41:55.130Z,0.00
2019-04-01T00:42:55.504Z,0.00
2019-04-01T00:43:55.777Z,0.00
2019-04-01T00:44:55.847Z,0.00
2019-04-01T00:52:41.718Z,0.00
2019-04-01T00:53:41.599Z,0.00
2019-04-01T00:54:41.597Z,0.00
2019-04-01T00:55:41.557Z,0.00
2019-04-01T00:56:41.525Z,0.00
2019-04-01T00:57:41.492Z,0.00
2019-04-01T00:58:41.464Z,0.00
2019-04-01T00:59:41.473Z,0.00
2019-04-01T01:00:41.403Z,0.00
2019-04-01T01:01:41.362Z,0.00
2019-04-01T01:02:41.311Z,0.00
2019-04-01T01:03:41.287Z,0.00
2019-04-01T01:04:41.252Z,0.00
2019-04-01T01:05:41.238Z,0.00
2019-04-01T01:06:41.787Z,0.00
2019-04-01T01:07:41.162Z,0.00
2019-04-01T01:08:41.105Z,0.00
2019-04-01T01:12:40.967Z,0.00
2019-04-01T01:13:40.974Z,0.00
2019-04-01T01:14:40.929Z,0.00
2019-04-01T01:15:40.915Z,0.00
2019-04-01T01:16:40.862Z,0.00
2019-04-01T01:17:40.835Z,0.00
2019-04-01T01:18:40.786Z,0.00
2019-04-01T01:19:40.768Z,0.00
2019-04-01T01:20:40.795Z,0.00
2019-04-01T01:21:40.683Z,0.00
2019-04-01T01:22:40.686Z,0.00
2019-04-01T01:23:40.645Z,0.00
2019-04-01T01:24:40.640Z,0.00
2019-04-01T01:25:40.554Z,0.00
2019-04-01T01:26:40.772Z,0.00
2019-04-01T01:27:40.515Z,0.00
2019-04-01T01:28:40.505Z,0.00
2019-04-01T01:29:40.509Z,0.00
2019-04-01T01:30:40.648Z,0.00
2019-04-01T01:31:40.363Z,0.00
2019-04-01T01:32:40.369Z,0.00
2019-04-01T01:33:40.318Z,0.00
2019-04-01T01:34:40.285Z,0.00
2019-04-01T01:35:40.994Z,0.00
2019-04-01T01:36:40.203Z,0.00
2019-04-01T01:37:40.272Z,0.00
2019-04-01T01:38:40.337Z,0.00
2019-04-01T01:39:40.199Z,0.00
2019-04-01T01:40:40.051Z,0.00
2019-04-01T01:41:40.050Z,0.00
2019-04-01T01:42:40.012Z,0.00
2019-04-01T01:43:39.949Z,0.00
2019-04-01T01:44:39.951Z,0.00
2019-04-01T01:45:39.883Z,0.00
2019-04-01T01:46:39.882Z,0.00
2019-04-01T01:47:39.841Z,0.00
2019-04-01T01:48:39.811Z,0.00
2019-04-01T01:49:39.783Z,0.00
2019-04-01T01:50:39.734Z,0.00
2019-04-01T01:51:39.684Z,0.00
2019-04-01T01:52:39.651Z,0.00
2019-04-01T01:53:41.639Z,0.00
2019-04-01T01:54:39.606Z,0.00
2019-04-01T01:55:39.552Z,0.00
2019-04-01T01:56:40.084Z,0.00
2019-04-01T01:57:39.744Z,0.00
2019-04-01T01:58:39.488Z,0.00
2019-04-01T01:59:39.418Z,0.00
2019-04-01T02:00:39.424Z,0.00
2019-04-01T02:01:39.379Z,0.00
2019-04-01T02:02:39.357Z,0.00
2019-04-01T02:03:39.567Z,0.00
2019-04-01T02:04:39.260Z,0.00
2019-04-01T02:05:39.275Z,0.00
2019-04-01T02:06:39.197Z,0.00
2019-04-01T02:07:39.155Z,0.00
2019-04-01T02:08:39.125Z,0.00
2019-04-01T02:09:39.096Z,0.00
2019-04-01T02:10:39.148Z,0.00
2019-04-01T02:11:39.039Z,0.00
2019-04-01T02:12:40.440Z,0.00
2019-04-01T02:13:38.994Z,0.00
2019-04-01T02:14:38.922Z,0.00
2019-04-01T02:15:38.889Z,0.00
2019-04-01T02:16:38.856Z,0.00
2019-04-01T02:17:38.826Z,0.00
2019-04-01T02:18:38.828Z,0.00
2019-04-01T02:19:38.759Z,0.00
2019-04-01T02:20:38.749Z,0.00
2019-04-01T02:21:38.746Z,0.00
2019-04-01T02:22:38.680Z,0.00
2019-04-01T02:23:38.643Z,0.00
2019-04-01T02:24:38.590Z,0.00
2019-04-01T02:25:38.579Z,0.00
2019-04-01T02:26:38.557Z,0.00
2019-04-01T02:27:38.511Z,0.00
2019-04-01T02:28:38.487Z,0.00
2019-04-01T02:29:38.450Z,0.00
2019-04-01T02:30:38.858Z,0.00
2019-04-01T02:31:40.328Z,0.00
2019-04-01T02:32:38.386Z,0.00
2019-04-01T02:33:38.315Z,0.00
2019-04-01T02:34:38.264Z,0.00
2019-04-01T02:35:38.240Z,0.00
2019-04-01T02:36:38.219Z,0.00
2019-04-01T02:37:38.766Z,0.00
2019-04-01T02:38:38.126Z,0.00
2019-04-01T02:39:38.131Z,0.00
2019-04-01T02:40:38.076Z,0.00
2019-04-01T02:41:38.061Z,0.00
2019-04-01T02:42:37.994Z,0.00
2019-04-01T02:43:38.283Z,0.00
2019-04-01T02:44:38.199Z,0.00
2019-04-01T02:45:37.896Z,0.00
2019-04-01T02:46:37.856Z,0.00
2019-04-01T02:47:37.835Z,0.00
2019-04-01T02:48:37.820Z,0.00
2019-04-01T02:49:37.764Z,0.00
2019-04-01T02:50:37.728Z,0.00
2019-04-01T02:51:37.693Z,0.00
2019-04-01T02:52:37.698Z,0.00
2019-04-01T02:53:37.652Z,0.00
2019-04-01T02:54:37.614Z,0.00
2019-04-01T02:55:37.563Z,0.00
2019-04-01T02:56:37.541Z,0.00
2019-04-01T02:57:37.588Z,0.00
2019-04-01T02:58:37.458Z,0.00
2019-04-01T02:59:37.601Z,0.00
2019-04-01T03:00:37.420Z,0.00
2019-04-01T03:01:37.404Z,0.00
2019-04-01T03:02:37.351Z,0.00
2019-04-01T03:03:37.320Z,0.00
2019-04-01T03:04:37.270Z,0.00
2019-04-01T03:05:37.261Z,0.00
2019-04-01T03:06:37.215Z,0.00
2019-04-01T03:07:37.183Z,0.00
2019-04-01T03:08:37.137Z,0.00
2019-04-01T03:09:37.168Z,0.00
2019-04-01T03:10:37.090Z,0.00
2019-04-01T03:11:37.047Z,0.00
2019-04-01T03:12:37.018Z,0.00
2019-04-01T03:13:36.963Z,0.00
2019-04-01T03:14:36.950Z,0.00
2019-04-01T03:15:36.946Z,0.00
2019-04-01T03:16:36.868Z,0.00
2019-04-01T03:17:36.832Z,0.00
2019-04-01T03:18:37.280Z,0.00
2019-04-01T03:19:36.761Z,0.00
2019-04-01T03:20:36.756Z,0.00
2019-04-01T03:21:36.717Z,0.00
2019-04-01T03:22:36.712Z,0.00
2019-04-01T03:23:36.629Z,0.00
2019-04-01T03:24:36.806Z,0.00
2019-04-01T03:25:36.591Z,0.00
2019-04-01T03:26:36.682Z,0.00
2019-04-01T03:27:36.516Z,0.00
2019-04-01T03:28:36.472Z,0.00
2019-04-01T03:29:36.452Z,0.00
2019-04-01T03:30:36.423Z,0.00
2019-04-01T03:31:36.381Z,0.00
2019-04-01T03:32:43.983Z,0.00
2019-04-01T03:33:36.320Z,0.00
2019-04-01T03:34:36.292Z,0.00
2019-04-01T03:35:36.250Z,0.00
2019-04-01T03:36:36.195Z,0.00
2019-04-01T03:37:36.170Z,0.00
2019-04-01T03:38:36.144Z,0.00
2019-04-01T03:39:36.115Z,0.00
2019-04-01T03:40:36.087Z,0.00
2019-04-01T03:41:36.028Z,0.00
2019-04-01T03:42:36.010Z,0.00
2019-04-01T03:43:35.991Z,0.00
2019-04-01T03:44:35.932Z,0.00
2019-04-01T03:45:35.901Z,0.00
2019-04-01T03:46:35.861Z,0.00
2019-04-01T03:47:36.043Z,0.00
2019-04-01T03:48:35.795Z,0.00
2019-04-01T03:49:35.784Z,0.00
2019-04-01T03:50:35.772Z,0.00
2019-04-01T03:51:35.696Z,0.00
2019-04-01T03:52:35.657Z,0.00
2019-04-01T03:53:35.660Z,0.00
2019-04-01T03:54:35.587Z,0.00
2019-04-01T03:55:35.558Z,0.00
2019-04-01T03:56:35.526Z,0.00
2019-04-01T03:57:35.513Z,0.00
2019-04-01T03:58:35.770Z,0.00
2019-04-01T03:59:35.428Z,0.00
2019-04-01T04:00:35.391Z,0.00
2019-04-01T04:01:35.382Z,0.00
2019-04-01T04:02:35.330Z,0.00
2019-04-01T04:03:35.289Z,0.00
2019-04-01T04:04:35.409Z,0.00
2019-04-01T04:05:35.240Z,0.00
2019-04-01T04:06:35.217Z,0.00
2019-04-01T04:07:35.159Z,0.00
2019-04-01T04:08:35.154Z,0.00
2019-04-01T04:09:35.087Z,0.00
2019-04-01T04:10:35.053Z,0.00
2019-04-01T04:11:35.027Z,0.00
2019-04-01T04:12:35.010Z,0.00
2019-04-01T04:13:34.969Z,0.00
2019-04-01T04:14:34.931Z,0.00
2019-04-01T04:15:34.931Z,0.00
2019-04-01T04:16:34.864Z,0.00
2019-04-01T04:17:34.825Z,0.00
2019-04-01T04:18:34.797Z,0.00
2019-04-01T04:19:34.753Z,0.00
2019-04-01T04:20:34.744Z,0.00
2019-04-01T04:21:34.684Z,0.00
2019-04-01T04:22:34.691Z,0.00
2019-04-01T04:23:34.617Z,0.00
2019-04-01T04:24:34.605Z,0.00
2019-04-01T04:25:34.827Z,0.00
2019-04-01T04:26:34.520Z,0.00
2019-04-01T04:27:34.496Z,0.00
2019-04-01T04:28:34.483Z,0.00
2019-04-01T04:29:34.435Z,0.00
2019-04-01T04:30:34.401Z,0.00
2019-04-01T04:31:34.362Z,0.00
2019-04-01T04:32:34.315Z,0.00
2019-04-01T04:33:34.303Z,0.00
2019-04-01T04:34:34.258Z,0.00
2019-04-01T04:35:34.284Z,0.00
2019-04-01T04:36:34.207Z,0.00
2019-04-01T04:37:34.224Z,0.00
2019-04-01T04:38:34.216Z,0.00
2019-04-01T04:39:34.078Z,0.00
2019-04-01T04:40:34.049Z,0.00
2019-04-01T04:41:34.013Z,0.00
2019-04-01T04:42:34.012Z,0.00
2019-04-01T04:43:33.969Z,0.00
2019-04-01T04:44:33.944Z,0.00
2019-04-01T04:45:33.962Z,0.00
2019-04-01T04:46:33.882Z,0.00
2019-04-01T04:47:33.974Z,0.00
2019-04-01T04:48:33.778Z,0.00
2019-04-01T04:49:33.767Z,0.00
2019-04-01T04:50:33.751Z,0.00
2019-04-01T04:51:33.698Z,0.00
2019-04-01T04:52:33.662Z,0.00
2019-04-01T04:53:33.631Z,0.00
2019-04-01T04:54:33.574Z,0.00
2019-04-01T04:55:33.562Z,0.00
2019-04-01T04:56:33.531Z,0.00
2019-04-01T04:57:33.570Z,0.00
2019-04-01T04:58:33.443Z,0.00
2019-04-01T04:59:33.404Z,0.00
2019-04-01T05:00:33.371Z,0.00
2019-04-01T05:01:33.340Z,0.00
2019-04-01T05:02:33.301Z,0.00
2019-04-01T05:03:33.281Z,0.00
2019-04-01T05:04:33.241Z,0.00
2019-04-01T05:05:33.388Z,0.00
2019-04-01T05:06:33.171Z,0.00
2019-04-01T05:07:33.136Z,0.00
2019-04-01T05:08:33.102Z,0.00
2019-04-01T05:09:33.083Z,0.00
2019-04-01T05:10:33.034Z,0.00
2019-04-01T05:11:33.001Z,0.00
2019-04-01T05:12:32.967Z,0.00
2019-04-01T05:13:32.935Z,0.00
2019-04-01T05:14:32.905Z,0.00
2019-04-01T05:15:32.872Z,0.00
2019-04-01T05:16:33.083Z,0.00
2019-04-01T05:17:32.808Z,0.00
2019-04-01T05:18:32.774Z,0.00
2019-04-01T05:19:32.741Z,0.00
2019-04-01T05:20:32.701Z,0.00
2019-04-01T05:21:32.670Z,0.00
2019-04-01T05:22:32.639Z,0.00
2019-04-01T05:23:32.600Z,0.00
2019-04-01T05:25:32.529Z,0.00
2019-04-01T05:26:32.495Z,0.00
2019-04-01T05:27:32.463Z,0.00
2019-04-01T05:28:32.429Z,0.00
2019-04-01T05:29:32.402Z,0.00
2019-04-01T05:30:32.371Z,0.00
2019-04-01T05:31:32.331Z,0.00
2019-04-01T05:32:32.294Z,0.00
2019-04-01T05:33:32.266Z,0.00
2019-04-01T05:34:32.232Z,0.00
2019-04-01T05:35:32.189Z,0.00
2019-04-01T05:36:32.159Z,0.00
2019-04-01T05:37:32.124Z,0.00
2019-04-01T05:38:32.090Z,0.00
2019-04-01T05:39:32.057Z,0.00
2019-04-01T05:40:32.024Z,0.00
2019-04-01T05:41:32.002Z,0.00
2019-04-01T05:42:31.954Z,0.00
2019-04-01T05:43:31.925Z,0.00
2019-04-01T05:44:31.889Z,0.00
2019-04-01T05:46:31.835Z,0.00
2019-04-01T05:47:31.799Z,0.00
2019-04-01T05:48:31.752Z,0.00
2019-04-01T05:49:31.727Z,0.00
2019-04-01T05:50:31.682Z,0.00
2019-04-01T05:51:31.664Z,0.00
2019-04-01T05:52:31.625Z,0.00
2019-04-01T05:53:31.591Z,0.00
2019-04-01T05:54:31.549Z,0.00
2019-04-01T05:55:31.516Z,0.00
2019-04-01T05:56:31.739Z,0.00
2019-04-01T05:57:31.453Z,0.00
2019-04-01T05:58:31.424Z,0.00
2019-04-01T05:59:31.379Z,0.00
2019-04-01T06:00:31.347Z,0.00
2019-04-01T06:01:31.314Z,0.00
2019-04-01T06:02:31.387Z,0.00
2019-04-01T06:03:31.244Z,0.00
2019-04-01T06:04:31.216Z,0.00
2019-04-01T06:05:31.347Z,0.00
2019-04-01T06:06:31.150Z,0.00
2019-04-01T06:07:31.108Z,0.00
2019-04-01T06:08:31.084Z,0.00
2019-04-01T06:09:31.039Z,0.00
2019-04-01T06:10:31.015Z,0.00
2019-04-01T06:11:30.976Z,0.00
2019-04-01T06:12:30.945Z,0.00
2019-04-01T06:13:30.926Z,0.00
2019-04-01T06:14:30.873Z,0.00
2019-04-01T06:15:30.846Z,0.00
2019-04-01T06:16:30.802Z,0.00
2019-04-01T06:17:30.776Z,0.00
2019-04-01T06:18:30.744Z,0.00
2019-04-01T06:19:30.702Z,0.00
2019-04-01T06:20:30.678Z,0.00
2019-04-01T06:21:30.634Z,0.00
2019-04-01T06:22:30.662Z,0.00
2019-04-01T06:23:30.766Z,0.00
2019-04-01T06:24:30.554Z,0.00
2019-04-01T06:25:30.779Z,0.00
2019-04-01T06:26:30.467Z,0.00
2019-04-01T06:27:30.698Z,0.00
2019-04-01T06:28:30.400Z,0.00
2019-04-01T06:29:30.367Z,0.00
2019-04-01T06:30:30.331Z,0.00
2019-04-01T06:31:30.294Z,0.00
2019-04-01T06:32:30.262Z,0.00
2019-04-01T06:33:30.229Z,0.00
2019-04-01T06:34:30.207Z,0.00
2019-04-01T06:35:30.161Z,0.00
2019-04-01T06:36:30.238Z,0.00
2019-04-01T06:37:30.182Z,0.00
2019-04-01T06:38:30.070Z,0.00
2019-04-01T06:39:30.029Z,0.00
2019-04-01T06:40:30.001Z,0.00
2019-04-01T06:41:29.957Z,0.00
2019-04-01T06:42:29.920Z,0.00
2019-04-01T06:43:29.900Z,0.00
2019-04-01T06:44:29.861Z,0.00
2019-04-01T06:45:29.842Z,0.00
2019-04-01T06:46:29.791Z,0.00
2019-04-01T06:47:29.774Z,0.00
2019-04-01T06:48:29.741Z,0.00
2019-04-01T06:49:29.697Z,0.00
2019-04-01T06:50:29.692Z,0.00
2019-04-01T06:51:29.626Z,0.00
2019-04-01T06:52:29.587Z,0.00
2019-04-01T06:53:29.547Z,0.00
2019-04-01T06:54:29.534Z,0.00
2019-04-01T06:55:29.542Z,0.00
2019-04-01T06:56:29.468Z,0.00
2019-04-01T06:57:29.434Z,0.00
2019-04-01T06:58:29.403Z,0.00
2019-04-01T06:59:29.376Z,0.00
2019-04-01T07:00:29.311Z,0.00
2019-04-01T07:01:29.286Z,0.00
2019-04-01T07:02:29.266Z,0.00
2019-04-01T07:03:29.209Z,0.00
2019-04-01T07:04:29.202Z,0.00
2019-04-01T07:05:29.161Z,0.00
2019-04-01T07:06:29.106Z,0.00
2019-04-01T07:07:29.159Z,0.00
2019-04-01T07:08:29.038Z,0.00
2019-04-01T07:09:29.027Z,0.00
2019-04-01T07:10:28.968Z,0.00
2019-04-01T07:11:29.021Z,0.00
2019-04-01T07:12:28.924Z,0.00
2019-04-01T07:13:28.890Z,0.00
2019-04-01T07:14:28.854Z,0.00
2019-04-01T07:16:29.120Z,0.00
2019-04-01T07:17:28.754Z,0.00
2019-04-01T07:18:28.739Z,0.00
2019-04-01T07:19:28.685Z,0.00
2019-04-01T07:20:28.630Z,0.00
2019-04-01T07:21:28.662Z,0.00
2019-04-01T07:22:28.561Z,0.00
2019-04-01T07:23:28.524Z,0.00
2019-04-01T07:24:28.514Z,0.00
2019-04-01T07:25:28.464Z,0.00
2019-04-01T07:26:28.705Z,0.00
2019-04-01T07:27:28.416Z,0.00
2019-04-01T07:28:28.385Z,0.00
2019-04-01T07:29:28.321Z,0.00
2019-04-01T07:30:28.287Z,0.00
2019-04-01T07:31:28.290Z,0.00
2019-04-01T07:32:28.243Z,0.00
2019-04-01T07:33:28.206Z,0.00
2019-04-01T07:34:28.182Z,0.00
2019-04-01T07:35:28.116Z,0.00
2019-04-01T07:36:28.086Z,0.00
2019-04-01T07:37:28.054Z,0.00
2019-04-01T07:38:28.039Z,0.00
2019-04-01T07:39:28.005Z,0.00
2019-04-01T07:40:27.954Z,0.00
2019-04-01T07:41:27.932Z,0.00
2019-04-01T07:42:27.905Z,0.00
2019-04-01T07:43:27.851Z,0.00
2019-04-01T07:44:27.827Z,0.00
2019-04-01T07:45:27.775Z,0.00
2019-04-01T07:46:27.762Z,0.00
2019-04-01T07:47:27.742Z,0.00
2019-04-01T07:48:27.674Z,0.00
2019-04-01T07:49:27.661Z,0.00
2019-04-01T07:50:27.627Z,0.00
2019-04-01T07:51:27.595Z,0.00
2019-04-01T07:52:27.546Z,0.00
2019-04-01T07:53:27.629Z,0.00
2019-04-01T07:54:27.468Z,0.00
2019-04-01T07:55:27.482Z,0.00
2019-04-01T07:56:27.406Z,0.00
2019-04-01T07:57:27.366Z,0.00
2019-04-01T07:58:27.358Z,0.00
2019-04-01T07:59:27.319Z,0.00
2019-04-01T08:00:27.298Z,0.00
2019-04-01T08:01:27.252Z,0.00
2019-04-01T08:02:27.214Z,0.00
2019-04-01T08:03:27.160Z,0.00
2019-04-01T08:04:27.126Z,0.00
2019-04-01T08:05:27.112Z,0.00
2019-04-01T08:06:27.057Z,0.00
2019-04-01T08:07:27.283Z,0.00
2019-04-01T08:08:26.992Z,0.00
2019-04-01T08:09:26.981Z,0.00
2019-04-01T08:10:26.944Z,0.00
2019-04-01T08:11:26.887Z,0.00
2019-04-01T08:12:27.941Z,0.00
2019-04-01T08:13:26.817Z,0.00
2019-04-01T08:14:26.817Z,0.00
2019-04-01T08:15:26.783Z,0.00
2019-04-01T08:16:26.732Z,0.00
2019-04-01T08:17:26.714Z,0.00
2019-04-01T08:18:26.834Z,0.00
2019-04-01T08:19:26.632Z,0.00
2019-04-01T08:20:26.579Z,0.00
2019-04-01T08:21:26.553Z,0.00
2019-04-01T08:22:26.515Z,0.00
2019-04-01T08:23:26.514Z,0.00
2019-04-01T08:24:26.590Z,0.00
2019-04-01T08:25:26.405Z,0.00
2019-04-01T08:26:26.372Z,0.00
2019-04-01T08:27:26.369Z,0.00
2019-04-01T08:28:26.333Z,0.00
2019-04-01T08:29:30.331Z,0.00
2019-04-01T08:30:26.235Z,0.00
2019-04-01T08:31:26.200Z,0.00
2019-04-01T08:32:26.190Z,0.00
2019-04-01T08:33:26.154Z,0.00
2019-04-01T08:34:26.102Z,0.00
2019-04-01T08:35:26.067Z,0.00
2019-04-01T08:36:26.025Z,0.00
2019-04-01T08:37:26.009Z,0.00
2019-04-01T08:38:25.961Z,0.00
2019-04-01T08:39:26.023Z,0.00
2019-04-01T08:40:25.893Z,0.00
2019-04-01T08:41:25.857Z,0.00
2019-04-01T08:42:25.820Z,0.00
2019-04-01T08:43:25.810Z,0.00
2019-04-01T08:44:25.774Z,0.00
2019-04-01T08:45:25.770Z,0.00
2019-04-01T08:46:25.682Z,0.00
2019-04-01T08:47:25.653Z,0.00
2019-04-01T08:48:25.620Z,0.00
2019-04-01T08:49:25.618Z,0.00
2019-04-01T08:50:25.545Z,0.00
2019-04-01T08:51:25.542Z,0.00
2019-04-01T08:52:25.537Z,0.00
2019-04-01T08:53:25.472Z,0.00
2019-04-01T08:54:25.448Z,0.00
2019-04-01T08:55:25.396Z,0.00
2019-04-01T08:56:25.369Z,0.00
2019-04-01T08:57:25.326Z,0.00
2019-04-01T08:58:25.297Z,0.00
2019-04-01T08:59:25.242Z,4.00
2019-04-01T09:00:25.203Z,0.00
2019-04-01T09:01:34.980Z,4.00
2019-04-01T09:02:25.141Z,4.00
2019-04-01T09:03:25.134Z,4.00
2019-04-01T09:04:25.115Z,8.00
2019-04-01T09:05:25.029Z,12.00
2019-04-01T09:06:24.999Z,12.00
2019-04-01T09:07:24.982Z,16.00
2019-04-01T09:08:24.946Z,24.00
2019-04-01T09:09:24.914Z,28.00
2019-04-01T09:10:24.864Z,32.00
2019-04-01T09:11:24.842Z,40.00
2019-04-01T09:12:24.814Z,48.00
2019-04-01T09:13:24.759Z,52.00
2019-04-01T09:14:24.718Z,60.00
2019-04-01T09:15:24.705Z,72.00
2019-04-01T09:16:24.646Z,80.00
2019-04-01T09:17:24.630Z,96.00
2019-04-01T09:18:24.603Z,108.00
2019-04-01T09:19:24.567Z,124.00
2019-04-01T09:20:24.523Z,136.00
2019-04-01T09:21:24.486Z,156.00
2019-04-01T09:22:24.463Z,168.00
2019-04-01T09:23:24.425Z,188.00
2019-04-01T09:24:24.393Z,208.00
2019-04-01T09:25:24.346Z,228.00
2019-04-01T09:26:24.329Z,248.00
2019-04-01T09:27:24.292Z,272.00
2019-04-01T09:28:24.289Z,296.00
2019-04-01T09:29:24.220Z,320.00
2019-04-01T09:30:24.181Z,348.00
2019-04-01T09:31:24.951Z,384.00
2019-04-01T09:32:24.115Z,460.00
2019-04-01T09:33:24.067Z,536.00
2019-04-01T09:34:24.051Z,596.00
2019-04-01T09:35:23.991Z,640.00
2019-04-01T09:36:23.988Z,688.00
2019-04-01T09:38:23.889Z,792.00
2019-04-01T09:39:23.884Z,836.00
2019-04-01T09:40:23.827Z,876.00
2019-04-01T09:41:23.783Z,932.00
2019-04-01T09:42:23.768Z,1000.00
2019-04-01T09:43:23.721Z,1020.00
2019-04-01T09:44:36.046Z,1088.00
2019-04-01T09:45:23.656Z,1152.00
2019-04-01T09:46:23.636Z,1176.00
2019-04-01T09:47:23.629Z,1208.00
2019-04-01T09:48:23.779Z,1288.00
2019-04-01T09:49:23.529Z,1340.00
2019-04-01T09:50:23.527Z,1376.00
2019-04-01T09:51:23.471Z,1452.00
2019-04-01T09:52:23.430Z,1508.00
2019-04-01T09:53:23.393Z,1532.00
2019-04-01T09:54:23.347Z,1572.00
2019-04-01T09:55:23.330Z,1624.00
2019-04-01T09:56:23.281Z,1688.00
2019-04-01T09:57:23.291Z,1748.00
2019-04-01T09:58:23.212Z,1796.00
2019-04-01T09:59:23.195Z,1856.00
2019-04-01T10:00:23.134Z,1912.00
2019-04-01T10:01:23.108Z,1952.00
2019-04-01T10:02:31.840Z,1996.00
2019-04-01T10:03:23.032Z,2088.00
2019-04-01T10:04:23.026Z,2164.00
2019-04-01T10:05:22.965Z,2196.00
2019-04-01T10:06:22.932Z,2224.00
2019-04-01T10:07:22.960Z,2308.00
2019-04-01T10:08:22.865Z,2404.00
2019-04-01T10:09:22.858Z,2460.00
2019-04-01T10:10:22.795Z,2516.00
2019-04-01T10:11:22.766Z,2584.00
2019-04-01T10:12:22.753Z,2660.00
2019-04-01T10:13:22.848Z,2740.00
2019-04-01T10:14:22.692Z,2856.00
2019-04-01T10:15:22.631Z,2948.00
2019-04-01T10:16:22.599Z,3012.00
2019-04-01T10:17:22.584Z,3092.00
2019-04-01T10:18:22.535Z,3180.00
2019-04-01T10:19:22.608Z,3256.00
2019-04-01T10:20:22.487Z,3328.00
2019-04-01T10:21:22.503Z,3404.00
2019-04-01T10:22:22.446Z,3452.00
2019-04-01T10:23:22.367Z,3540.00
2019-04-01T10:24:22.334Z,3656.00
2019-04-01T10:25:22.352Z,3720.00
2019-04-01T10:26:22.291Z,3852.00
2019-04-01T10:27:22.239Z,3936.00
2019-04-01T10:28:22.388Z,4084.00
2019-04-01T10:29:22.193Z,4228.00
2019-04-01T10:30:22.138Z,4508.00
2019-04-01T10:31:22.133Z,4712.00
2019-04-01T10:32:22.074Z,4872.00
2019-04-01T10:33:22.048Z,5008.00
2019-04-01T10:34:22.030Z,5120.00
2019-04-01T10:35:22.301Z,5128.00
2019-04-01T10:36:21.977Z,5144.00
2019-04-01T10:37:21.951Z,5108.00
2019-04-01T10:38:21.887Z,5060.00
2019-04-01T10:39:21.859Z,5316.00
2019-04-01T10:40:21.820Z,5544.00
2019-04-01T10:41:21.790Z,5840.00
2019-04-01T10:42:21.779Z,5816.00
2019-04-01T10:43:21.723Z,6120.00
2019-04-01T10:44:21.716Z,6240.00
2019-04-01T10:45:21.920Z,6168.00
2019-04-01T10:46:21.637Z,6356.00
2019-04-01T10:47:21.664Z,6592.00
2019-04-01T10:48:21.581Z,6992.00
2019-04-01T10:49:21.666Z,7432.00
2019-04-01T10:50:21.563Z,8580.00
2019-04-01T10:51:21.495Z,10136.00
2019-04-01T10:52:21.476Z,11948.00
2019-04-01T10:53:21.442Z,12700.00
2019-04-01T10:54:21.475Z,13044.00
2019-04-01T10:55:21.360Z,14260.00
2019-04-01T10:56:21.364Z,14760.00
2019-04-01T10:57:21.659Z,14916.00
2019-04-01T10:58:21.351Z,14268.00
2019-04-01T10:59:21.259Z,13232.00
2019-04-01T11:00:21.219Z,14004.00
2019-04-01T11:01:21.373Z,14532.00
2019-04-01T11:02:21.196Z,14416.00
2019-04-01T11:03:21.166Z,16608.00
2019-04-01T11:04:21.090Z,16640.00
2019-04-01T11:05:21.095Z,15180.00
2019-04-01T11:06:21.347Z,16992.00
2019-04-01T11:07:21.039Z,18656.00
2019-04-01T11:08:21.178Z,19296.00
2019-04-01T11:09:20.940Z,16420.00
2019-04-01T11:10:20.904Z,18272.00
2019-04-01T11:11:20.879Z,19392.00
2019-04-01T11:12:20.824Z,25184.00
2019-04-01T11:13:21.822Z,25952.00
2019-04-01T11:14:20.790Z,30496.00
2019-04-01T11:15:20.763Z,44096.00
2019-04-01T11:16:20.731Z,46816.00
2019-04-01T11:17:20.827Z,29440.00
2019-04-01T11:18:20.677Z,18432.00
2019-04-01T11:19:20.635Z,16752.00
2019-04-01T11:20:20.592Z,14792.00
2019-04-01T11:21:20.580Z,12876.00
2019-04-01T11:22:20.527Z,12116.00
2019-04-01T11:23:20.516Z,11904.00
2019-04-01T11:24:20.518Z,11988.00
2019-04-01T11:25:20.502Z,11972.00
2019-04-01T11:26:20.406Z,12080.00
2019-04-01T11:27:20.397Z,12168.00
2019-04-01T11:28:20.433Z,12284.00
2019-04-01T11:29:20.342Z,12592.00
2019-04-01T11:30:20.339Z,13636.00
2019-04-01T11:31:20.336Z,22016.00
2019-04-01T11:32:20.275Z,34656.00
2019-04-01T11:33:20.211Z,38112.00
2019-04-01T11:34:20.529Z,38496.00
2019-04-01T11:35:20.200Z,38016.00
2019-04-01T11:36:20.124Z,41280.00
2019-04-01T11:37:20.249Z,47040.00
2019-04-01T11:38:20.079Z,50976.00
2019-04-01T11:39:20.044Z,49376.00
2019-04-01T11:40:20.015Z,49344.00
2019-04-01T11:41:20.000Z,50240.00
2019-04-01T11:42:20.029Z,49664.00
2019-04-01T11:43:19.913Z,48576.00
2019-04-01T11:44:19.906Z,50176.00
2019-04-01T11:45:19.879Z,51488.00
2019-04-01T11:46:19.938Z,52032.00
2019-04-01T11:47:22.068Z,54784.00
2019-04-01T11:48:19.828Z,55168.00
2019-04-01T11:49:19.814Z,50848.00
2019-04-01T11:50:19.796Z,48576.00
2019-04-01T11:51:32.074Z,54240.00
2019-04-01T11:52:19.701Z,55712.00
2019-04-01T11:53:19.643Z,58688.00
2019-04-01T11:54:19.614Z,62848.00
2019-04-01T11:55:19.576Z,61408.00
2019-04-01T11:56:19.564Z,59904.00
2019-04-01T11:57:19.511Z,59488.00
2019-04-01T11:58:19.538Z,60672.00
2019-04-01T11:59:19.476Z,62432.00
2019-04-01T12:00:19.426Z,64896.00
2019-04-01T12:01:19.443Z,66624.00
2019-04-01T12:02:19.368Z,63840.00
2019-04-01T12:03:19.938Z,59104.00
2019-04-01T12:04:19.368Z,59904.00
2019-04-01T12:05:19.311Z,63776.00
2019-04-01T12:06:19.300Z,67296.00
2019-04-01T12:07:19.235Z,68192.00
2019-04-01T12:08:19.204Z,68032.00
2019-04-01T12:09:19.203Z,65344.00
2019-04-01T12:10:19.149Z,65088.00
2019-04-01T12:11:19.126Z,64960.00
2019-04-01T12:12:23.900Z,55168.00
2019-04-01T12:13:19.068Z,64064.00
2019-04-01T12:14:19.088Z,72256.00
2019-04-01T12:15:19.016Z,71328.00
2019-04-01T12:16:19.008Z,71616.00
2019-04-01T12:17:18.981Z,70240.00
2019-04-01T12:18:18.931Z,69760.00
2019-04-01T12:19:18.916Z,73184.00
2019-04-01T12:20:18.881Z,71072.00
2019-04-01T12:21:18.884Z,70144.00
2019-04-01T12:22:19.928Z,71168.00
2019-04-01T12:23:18.820Z,70944.00
2019-04-01T12:24:18.804Z,71456.00
2019-04-01T12:25:18.900Z,71936.00
2019-04-01T12:26:18.723Z,75456.00
2019-04-01T12:27:18.750Z,75200.00
2019-04-01T12:28:18.687Z,75232.00
2019-04-01T12:29:18.664Z,77952.00
2019-04-01T12:30:18.628Z,79360.00
2019-04-01T12:31:18.614Z,78304.00
2019-04-01T12:32:18.602Z,75136.00
2019-04-01T12:33:18.652Z,72608.00
2019-04-01T12:34:18.509Z,71040.00
2019-04-01T12:35:19.341Z,70528.00
2019-04-01T12:37:18.437Z,68992.00
2019-04-01T12:38:18.488Z,72160.00
2019-04-01T12:39:18.383Z,72000.00
2019-04-01T12:40:18.413Z,71488.00
2019-04-01T12:41:19.047Z,74048.00
2019-04-01T12:42:18.307Z,78016.00
2019-04-01T12:43:18.331Z,78624.00
2019-04-01T12:44:18.291Z,78656.00
2019-04-01T12:45:18.254Z,78592.00
2019-04-01T12:46:18.206Z,77536.00
2019-04-01T12:47:18.203Z,74560.00
2019-04-01T12:48:18.159Z,74400.00
2019-04-01T12:49:18.159Z,81696.00
2019-04-01T12:50:18.130Z,82400.00
2019-04-01T12:51:18.091Z,80224.00
2019-04-01T12:52:18.162Z,80960.00
2019-04-01T12:53:18.034Z,82016.00
2019-04-01T12:54:18.034Z,78016.00
2019-04-01T12:55:18.010Z,75936.00
2019-04-01T12:56:17.958Z,79744.00
2019-04-01T12:57:18.918Z,82368.00
2019-04-01T12:58:17.945Z,81120.00
2019-04-01T12:59:18.290Z,80832.00
2019-04-01T13:00:18.163Z,79392.00
2019-04-01T13:01:17.839Z,79936.00
2019-04-01T13:02:18.290Z,78688.00
2019-04-01T13:03:18.558Z,80576.00
2019-04-01T13:04:17.827Z,81888.00
2019-04-01T13:05:17.772Z,82816.00
2019-04-01T13:06:18.256Z,83040.00
2019-04-01T13:07:18.035Z,82336.00
2019-04-01T13:08:17.930Z,84544.00
2019-04-01T13:09:17.686Z,84128.00
2019-04-01T13:10:17.652Z,83776.00
2019-04-01T13:11:19.357Z,82144.00
2019-04-01T13:12:17.961Z,81344.00
2019-04-01T13:13:17.596Z,85376.00